Time;durP1;ratioP1;P1;durP2;ratioP2;P2;SDS_P1;SDS_P2;PMS_P1;PMS_P2;Temp;Humidity;BMP_temperature;BMP_pressure;BME280_temperature;BME280_humidity;BME280_pressure;Samples;Min_cycle;Max_cycle;Signal;HPM_P1;HPM_P2
2021/11/08 00:00:22;;;;;;;20.67;5.93;;;;;;;5.89;100.00;101428.06;4986653;28;20042;-86
2021/11/08 00:02:52;;;;;;;27.95;6.20;;;;;;;5.93;100.00;101432.25;5008113;28;20076;-86
2021/11/08 00:05:24;;;;;;;21.05;5.68;;;;;;;5.93;100.00;101431.34;4980869;28;20101;-85
2021/11/08 00:08:01;;;;;;;21.13;6.45;;;;;;;5.99;100.00;101433.59;4989990;28;20076;-85
2021/11/08 00:10:33;;;;;;;20.75;5.30;;;;;;;6.00;100.00;101428.13;4985450;28;20046;-85
2021/11/08 00:13:04;;;;;;;17.50;5.50;;;;;;;6.00;100.00;101422.78;4980296;28;20518;-86
2021/11/08 00:15:43;;;;;;;23.80;5.28;;;;;;;6.02;100.00;101431.53;5008048;28;20517;-85
2021/11/08 00:18:33;;;;;;;20.05;5.03;;;;;;;6.05;100.00;101431.28;4987648;28;20057;-86
2021/11/08 00:21:04;;;;;;;24.08;5.13;;;;;;;6.04;100.00;101431.38;4987428;28;20042;-87
2021/11/08 00:23:29;;;;;;;20.80;5.60;;;;;;;6.10;100.00;101433.59;4988508;28;20031;-86
2021/11/08 00:25:58;;;;;;;15.70;6.25;;;;;;;6.11;100.00;101435.28;4975294;28;20049;-85
2021/11/08 00:28:34;;;;;;;22.40;5.50;;;;;;;6.14;100.00;101434.22;4990193;28;20045;-85
2021/11/08 00:31:04;;;;;;;19.92;5.03;;;;;;;6.13;100.00;101441.34;4992064;28;20037;-87
2021/11/08 00:33:31;;;;;;;19.77;6.07;;;;;;;6.17;100.00;101440.13;4989600;28;20041;-87
2021/11/08 00:36:00;;;;;;;22.88;6.07;;;;;;;6.21;100.00;101430.91;5008469;28;20458;-87
2021/11/08 00:38:27;;;;;;;21.77;5.68;;;;;;;6.21;100.00;101435.41;5003283;28;20537;-86
2021/11/08 00:40:59;;;;;;;25.67;6.70;;;;;;;6.21;100.00;101441.59;4991874;28;20045;-86
2021/11/08 00:43:25;;;;;;;20.90;5.13;;;;;;;6.20;100.00;101436.38;4975417;28;20041;-86
2021/11/08 00:45:53;;;;;;;23.70;6.50;;;;;;;6.23;100.00;101438.81;4978084;28;20567;-85
2021/11/08 00:48:37;;;;;;;21.13;6.50;;;;;;;6.30;100.00;101445.34;5008324;28;20061;-86
2021/11/08 00:51:04;;;;;;;21.48;5.85;;;;;;;6.31;100.00;101442.56;4990338;28;20046;-85
2021/11/08 00:53:36;;;;;;;18.33;5.10;;;;;;;6.25;100.00;101444.88;4974298;28;20049;-89
2021/11/08 00:56:08;;;;;;;19.98;5.68;;;;;;;6.27;100.00;101442.91;5010652;28;20049;-86
2021/11/08 00:58:42;;;;;;;18.20;5.35;;;;;;;6.29;100.00;101449.00;5010652;28;20038;-87
2021/11/08 01:01:09;;;;;;;20.88;4.93;;;;;;;6.26;100.00;101451.91;4981900;28;20037;-87
2021/11/08 01:03:42;;;;;;;23.15;5.40;;;;;;;6.26;100.00;101452.75;4998543;28;20046;-85
2021/11/08 01:06:17;;;;;;;15.18;4.80;;;;;;;6.26;100.00;101447.41;4985958;28;20050;-86
2021/11/08 01:08:50;;;;;;;18.13;5.70;;;;;;;6.27;100.00;101461.56;5006983;28;20048;-88
2021/11/08 01:11:16;;;;;;;21.42;6.80;;;;;;;6.32;100.00;101459.41;4993721;28;20110;-86
2021/11/08 01:13:43;;;;;;;18.33;5.07;;;;;;;6.29;100.00;101456.97;5009697;28;20068;-86
2021/11/08 01:16:11;;;;;;;19.92;5.25;;;;;;;6.32;100.00;101448.75;5011144;28;20042;-87
2021/11/08 01:18:37;;;;;;;16.70;5.18;;;;;;;6.32;100.00;101448.75;4982128;28;20121;-86
2021/11/08 01:21:06;;;;;;;26.52;5.65;;;;;;;6.33;100.00;101453.97;4976670;28;20038;-86
2021/11/08 01:23:34;;;;;;;22.73;5.78;;;;;;;6.29;100.00;101451.66;4943174;28;20049;-86
2021/11/08 01:26:10;;;;;;;18.77;5.15;;;;;;;6.26;100.00;101460.72;5004091;28;20066;-86
2021/11/08 01:28:48;;;;;;;17.65;5.60;;;;;;;6.26;100.00;101457.22;5010978;28;20092;-86
2021/11/08 01:31:17;;;;;;;25.33;5.60;;;;;;;6.23;100.00;101460.97;4979254;28;20038;-87
2021/11/08 01:33:49;;;;;;;22.08;5.63;;;;;;;6.19;100.00;101464.00;4980536;28;20087;-86
2021/11/08 01:36:38;;;;;;;22.38;6.05;;;;;;;6.17;100.00;101468.59;5009101;28;20034;-85
2021/11/08 01:39:24;;;;;;;21.77;6.43;;;;;;;6.14;100.00;101463.53;4995872;28;20042;-86
2021/11/08 01:41:55;;;;;;;21.60;7.22;;;;;;;6.11;100.00;101469.94;4992910;28;20402;-86
2021/11/08 01:44:21;;;;;;;21.92;5.68;;;;;;;6.06;100.00;101475.59;4993191;28;20045;-86
2021/11/08 01:46:59;;;;;;;22.25;6.15;;;;;;;6.05;100.00;101473.91;4993693;28;20070;-87
2021/11/08 01:49:33;;;;;;;21.35;6.93;;;;;;;5.99;100.00;101469.06;4993811;28;20041;-86
2021/11/08 01:52:04;;;;;;;20.52;6.65;;;;;;;6.01;100.00;101466.25;5008562;28;20044;-86
2021/11/08 01:54:40;;;;;;;26.15;6.70;;;;;;;5.96;100.00;101465.78;5010494;28;20050;-84
2021/11/08 01:57:10;;;;;;;20.45;5.90;;;;;;;5.92;100.00;101470.47;5009276;28;20497;-86
2021/11/08 01:59:36;;;;;;;21.02;6.05;;;;;;;5.85;100.00;101470.09;4976817;28;20395;-85
2021/11/08 02:02:05;;;;;;;20.88;6.95;;;;;;;5.83;100.00;101474.66;4993296;28;20045;-86
2021/11/08 02:04:31;;;;;;;20.42;5.38;;;;;;;5.80;100.00;101479.38;4992095;28;20046;-86
2021/11/08 02:06:58;;;;;;;18.48;6.30;;;;;;;5.76;100.00;101472.63;4993075;28;20061;-86
2021/11/08 02:09:26;;;;;;;21.02;7.32;;;;;;;5.76;100.00;101478.78;4992730;28;20061;-85
2021/11/08 02:11:52;;;;;;;21.75;7.13;;;;;;;5.72;100.00;101482.63;4975529;28;20051;-85
2021/11/08 02:14:18;;;;;;;22.05;7.35;;;;;;;5.72;100.00;101477.28;4993937;28;20046;-85
2021/11/08 02:16:49;;;;;;;22.42;7.45;;;;;;;5.68;100.00;101475.84;4996315;28;20129;-86
2021/11/08 02:19:21;;;;;;;24.98;7.20;;;;;;;5.71;100.00;101474.78;4995373;28;20042;-85
2021/11/08 02:21:47;;;;;;;21.90;6.40;;;;;;;5.63;100.00;101476.19;4997443;28;20048;-85
2021/11/08 02:24:25;;;;;;;22.55;6.85;;;;;;;5.61;100.00;101480.78;4996668;28;20497;-86
2021/11/08 02:26:51;;;;;;;21.30;6.90;;;;;;;5.54;100.00;101479.53;5011671;28;20068;-85
2021/11/08 02:29:26;;;;;;;25.00;7.13;;;;;;;5.50;100.00;101486.06;4992159;28;20628;-85
2021/11/08 02:31:57;;;;;;;17.90;6.90;;;;;;;5.40;100.00;101479.72;4992930;28;20041;-85
2021/11/08 02:34:24;;;;;;;22.65;6.82;;;;;;;5.41;100.00;101489.41;4973114;28;20033;-85
2021/11/08 02:36:54;;;;;;;27.83;7.85;;;;;;;5.43;100.00;101487.47;4989279;28;20088;-85
2021/11/08 02:39:33;;;;;;;22.98;7.50;;;;;;;5.39;100.00;101483.34;4991914;28;20522;-87
2021/11/08 02:41:59;;;;;;;23.42;9.10;;;;;;;5.43;100.00;101484.81;4963785;28;20076;-88
2021/11/08 02:44:25;;;;;;;20.58;7.22;;;;;;;5.39;100.00;101496.66;5011250;28;20066;-87
2021/11/08 02:46:53;;;;;;;17.95;6.22;;;;;;;5.31;100.00;101493.72;5011324;28;20096;-87
2021/11/08 02:49:31;;;;;;;16.85;7.22;;;;;;;5.31;100.00;101493.72;5008588;28;20514;-86
2021/11/08 02:52:09;;;;;;;23.20;7.50;;;;;;;5.16;100.00;101498.34;4999755;28;20045;-88
2021/11/08 02:54:44;;;;;;;18.23;7.00;;;;;;;5.09;100.00;101503.28;5009017;28;20121;-85
2021/11/08 02:57:21;;;;;;;26.25;6.47;;;;;;;4.94;100.00;101491.06;4993929;28;20038;-86
2021/11/08 02:59:51;;;;;;;19.98;7.47;;;;;;;4.93;100.00;101490.22;4960663;28;20564;-86
2021/11/08 03:02:25;;;;;;;20.48;7.22;;;;;;;4.97;100.00;101485.53;4991567;28;20044;-84
2021/11/08 03:04:54;;;;;;;17.17;6.50;;;;;;;4.92;100.00;101482.34;4969070;28;20100;-84
2021/11/08 03:07:31;;;;;;;22.63;7.57;;;;;;;4.85;100.00;101483.75;5008506;28;20037;-86
2021/11/08 03:10:00;;;;;;;23.52;8.43;;;;;;;4.93;100.00;101482.25;5009083;28;20107;-85
2021/11/08 03:12:36;;;;;;;23.15;8.98;;;;;;;4.96;100.00;101479.34;5008965;28;20103;-86
2021/11/08 03:15:12;;;;;;;21.17;7.80;;;;;;;4.97;100.00;101474.88;5007751;28;20052;-84
2021/11/08 03:17:45;;;;;;;25.20;8.80;;;;;;;4.89;100.00;101471.94;5008787;28;20050;-85
2021/11/08 03:20:16;;;;;;;30.75;9.25;;;;;;;4.89;100.00;101471.94;4992284;28;20057;-85
2021/11/08 03:22:53;;;;;;;24.40;9.00;;;;;;;4.84;100.00;101480.25;4991997;28;20056;-84
2021/11/08 03:27:57;;;;;;;21.95;7.57;;;;;;;4.78;100.00;101479.84;4992146;28;20478;-85
2021/11/08 03:30:27;;;;;;;23.05;8.77;;;;;;;4.70;100.00;101481.22;5008601;28;20136;-86
2021/11/08 03:33:11;;;;;;;19.00;8.52;;;;;;;4.64;100.00;101484.34;4992636;28;20042;-87
2021/11/08 03:35:38;;;;;;;22.05;8.05;;;;;;;4.60;100.00;101489.97;4991715;28;20041;-85
2021/11/08 03:38:09;;;;;;;19.20;8.35;;;;;;;4.50;100.00;101497.75;4961320;28;20042;-86
2021/11/08 03:40:45;;;;;;;31.23;10.32;;;;;;;4.51;100.00;101502.09;4995088;28;20355;-86
2021/11/08 03:43:17;;;;;;;30.17;10.52;;;;;;;4.62;100.00;101502.19;4991646;28;21029;-86
2021/11/08 03:45:47;;;;;;;24.65;10.40;;;;;;;4.68;100.00;101498.25;4991515;28;20044;-86
2021/11/08 03:48:14;;;;;;;29.65;10.50;;;;;;;4.67;100.00;101505.38;5012539;28;20038;-85
2021/11/08 03:50:42;;;;;;;22.50;10.82;;;;;;;4.65;100.00;101501.97;4991763;28;20068;-84
2021/11/08 03:53:08;;;;;;;27.60;12.13;;;;;;;4.70;100.00;101506.97;4990712;28;20117;-87
2021/11/08 03:55:34;;;;;;;32.15;12.27;;;;;;;4.71;100.00;101506.84;4994476;28;20053;-86
2021/11/08 03:58:01;;;;;;;43.72;14.70;;;;;;;4.71;100.00;101501.53;5009455;28;20049;-85
2021/11/08 04:00:28;;;;;;;35.70;15.50;;;;;;;4.72;100.00;101503.25;4990294;28;20042;-87
2021/11/08 04:02:58;;;;;;;41.28;15.70;;;;;;;4.72;100.00;101494.44;5008867;28;20140;-85
2021/11/08 04:05:35;;;;;;;33.05;14.00;;;;;;;4.72;100.00;101516.56;4985234;28;20034;-86
2021/11/08 04:08:06;;;;;;;34.47;14.35;;;;;;;4.72;100.00;101513.03;4972483;28;20047;-86
2021/11/08 04:10:32;;;;;;;35.55;16.55;;;;;;;4.77;100.00;101515.38;5005000;28;20061;-85
2021/11/08 04:13:03;;;;;;;41.17;15.82;;;;;;;4.79;100.00;101513.47;5008395;28;20042;-85
2021/11/08 04:15:37;;;;;;;37.20;15.38;;;;;;;4.78;100.00;101515.28;4990959;28;20069;-87
2021/11/08 04:18:24;;;;;;;37.33;15.70;;;;;;;4.77;100.00;101512.69;4991221;28;20057;-86
2021/11/08 04:20:53;;;;;;;39.55;18.80;;;;;;;4.74;100.00;101516.44;4958813;28;20555;-87
2021/11/08 04:23:22;;;;;;;43.95;20.00;;;;;;;4.75;100.00;101518.16;4987330;28;20121;-86
2021/11/08 04:25:55;;;;;;;50.70;18.75;;;;;;;4.72;100.00;101524.53;4972074;28;20655;-86
2021/11/08 04:28:21;;;;;;;33.88;17.48;;;;;;;4.73;100.00;101523.56;4986070;28;20411;-85
2021/11/08 04:30:53;;;;;;;44.25;19.38;;;;;;;4.74;100.00;101527.91;4987833;28;20069;-84
2021/11/08 04:33:33;;;;;;;40.88;17.60;;;;;;;4.73;100.00;101528.88;4971222;28;20038;-85
2021/11/08 04:36:29;;;;;;;41.75;17.63;;;;;;;4.70;100.00;101515.81;4964910;28;20065;-85
2021/11/08 04:44:10;;;;;;;42.38;19.17;;;;;;;4.71;100.00;101530.78;4971689;28;20069;-85
2021/11/08 04:47:39;;;;;;;45.05;22.00;;;;;;;4.75;100.00;101542.94;4994071;28;29773;-88
2021/11/08 04:52:13;;;;;;;39.60;20.95;;;;;;;4.75;100.00;101545.59;5008870;28;20053;-85
2021/11/08 04:57:53;;;;;;;41.05;20.73;;;;;;;4.75;100.00;101545.59;5003251;28;20049;-83
2021/11/08 05:22:43;;;;;;;43.38;22.40;;;;;;;4.70;100.00;101553.03;4975724;28;20050;-87
2021/11/08 05:30:35;;;;;;;45.88;21.33;;;;;;;4.66;100.00;101554.22;4980549;28;20046;-86
2021/11/08 05:33:01;;;;;;;44.80;23.15;;;;;;;4.70;100.00;101560.16;4981079;28;20080;-87
2021/11/08 05:35:29;;;;;;;48.47;23.63;;;;;;;4.71;100.00;101557.38;4984074;28;20042;-85
2021/11/08 05:37:55;;;;;;;45.13;25.63;;;;;;;4.72;100.00;101560.91;4970284;28;20050;-85
2021/11/08 05:40:31;;;;;;;43.05;24.60;;;;;;;4.70;100.00;101563.66;4970410;28;20035;-84
2021/11/08 05:42:57;;;;;;;44.35;22.50;;;;;;;4.67;100.00;101561.22;4964780;28;20491;-85
2021/11/08 05:45:23;;;;;;;48.17;25.02;;;;;;;4.70;100.00;101568.97;5009289;28;20042;-86
2021/11/08 05:47:48;;;;;;;44.90;27.08;;;;;;;4.70;100.00;101566.31;5009045;28;20038;-88
2021/11/08 05:50:18;;;;;;;47.03;26.45;;;;;;;4.66;100.00;101559.53;5011188;28;20056;-86
2021/11/08 05:52:46;;;;;;;45.75;27.45;;;;;;;4.65;100.00;101571.09;4992757;28;20085;-85
2021/11/08 05:55:12;;;;;;;49.60;25.83;;;;;;;4.62;100.00;101573.97;4976826;28;20334;-85
2021/11/08 05:57:45;;;;;;;46.95;26.08;;;;;;;4.62;100.00;101583.75;4995683;28;20510;-86
2021/11/08 06:49:30;;;;;;;53.88;28.88;;;;;;;4.40;100.00;101598.53;4995101;28;20048;-88
2021/11/08 06:51:56;;;;;;;52.88;26.08;;;;;;;4.40;100.00;101608.31;4994550;28;20083;-86
2021/11/08 06:54:24;;;;;;;50.42;27.63;;;;;;;4.40;100.00;101614.50;4994254;28;20449;-86
2021/11/08 06:59:17;;;;;;;46.35;27.65;;;;;;;4.45;100.00;101616.81;5006765;28;20038;-85
2021/11/08 07:01:44;;;;;;;50.83;25.67;;;;;;;4.47;100.00;101614.91;4982854;28;20038;-87
2021/11/08 07:04:10;;;;;;;48.90;25.92;;;;;;;4.50;100.00;101614.69;4986891;28;20108;-86
2021/11/08 07:06:36;;;;;;;43.20;25.98;;;;;;;4.52;100.00;101623.44;4992304;28;20506;-86
2021/11/08 07:09:03;;;;;;;50.38;25.27;;;;;;;4.56;100.00;101629.38;4971487;28;20449;-87
2021/11/08 07:11:29;;;;;;;44.53;26.92;;;;;;;4.58;100.00;101625.66;5003753;28;20030;-85
2021/11/08 07:13:54;;;;;;;45.20;24.58;;;;;;;4.60;100.00;101630.88;4973036;28;20056;-86
2021/11/08 07:16:20;;;;;;;53.55;29.63;;;;;;;4.59;100.00;101635.34;4986041;28;20414;-87
2021/11/08 07:18:45;;;;;;;49.13;26.33;;;;;;;4.61;100.00;101637.91;4971934;28;20050;-87
2021/11/08 07:21:11;;;;;;;51.20;28.23;;;;;;;4.64;100.00;101637.69;4973077;28;20045;-87
2021/11/08 07:23:36;;;;;;;57.05;28.00;;;;;;;4.65;100.00;101639.38;5002810;28;20819;-87
2021/11/08 07:26:02;;;;;;;55.33;27.15;;;;;;;4.66;100.00;101644.59;4969720;28;20042;-85
2021/11/08 07:28:27;;;;;;;61.22;27.45;;;;;;;4.69;100.00;101649.72;4986677;28;20155;-86
2021/11/08 07:30:53;;;;;;;52.00;29.77;;;;;;;4.74;100.00;101644.91;4970881;28;20042;-87
2021/11/08 07:33:18;;;;;;;56.40;28.10;;;;;;;4.76;100.00;101658.09;4955667;28;20037;-85
2021/11/08 07:35:44;;;;;;;51.17;26.92;;;;;;;4.81;100.00;101655.16;4988060;28;20045;-87
2021/11/08 07:38:10;;;;;;;46.78;26.45;;;;;;;4.86;100.00;101660.97;4986914;28;20050;-85
2021/11/08 07:40:36;;;;;;;50.20;27.33;;;;;;;4.88;100.00;101662.56;5004735;28;20479;-86
2021/11/08 07:43:02;;;;;;;61.42;29.13;;;;;;;4.95;100.00;101665.69;4986503;28;20049;-86
2021/11/08 07:45:27;;;;;;;63.13;30.13;;;;;;;4.98;100.00;101670.78;4978018;28;20073;-87
2021/11/08 07:47:53;;;;;;;52.55;27.60;;;;;;;5.03;100.00;101670.44;4988044;28;20041;-86
2021/11/08 07:50:20;;;;;;;49.58;26.52;;;;;;;5.04;100.00;101672.16;4986137;28;20037;-86
2021/11/08 07:52:45;;;;;;;50.08;24.92;;;;;;;5.05;100.00;101672.03;4986984;28;20046;-86
2021/11/08 07:55:10;;;;;;;50.05;23.83;;;;;;;5.11;100.00;101668.94;4980332;28;20061;-86
2021/11/08 07:57:36;;;;;;;44.30;22.95;;;;;;;5.15;100.00;101678.44;4981837;28;20081;-86
2021/11/08 08:00:03;;;;;;;40.78;23.85;;;;;;;5.19;100.00;101669.28;4975873;28;20398;-86
2021/11/08 08:02:28;;;;;;;55.95;24.13;;;;;;;5.27;100.00;101670.56;4986534;28;20063;-86
2021/11/08 08:04:54;;;;;;;43.20;25.40;;;;;;;5.33;100.00;101673.63;4967553;28;20054;-87
2021/11/08 08:07:19;;;;;;;41.30;23.27;;;;;;;5.38;100.00;101670.63;4986465;28;20040;-86
2021/11/08 08:09:44;;;;;;;43.70;19.40;;;;;;;5.40;100.00;101677.53;4970622;28;20033;-86
2021/11/08 08:12:10;;;;;;;38.15;19.65;;;;;;;5.47;100.00;101671.78;4985963;28;20283;-86
2021/11/08 08:14:36;;;;;;;35.17;19.95;;;;;;;5.51;100.00;101675.94;4950911;28;20034;-88
2021/11/08 08:17:03;;;;;;;37.28;19.60;;;;;;;5.56;100.00;101677.31;5003646;28;20062;-85
2021/11/08 08:19:29;;;;;;;39.70;21.10;;;;;;;5.61;100.00;101690.28;4997580;28;20038;-86
2021/11/08 08:21:54;;;;;;;43.90;20.05;;;;;;;5.62;100.00;101700.84;4978488;28;20475;-86
2021/11/08 08:24:20;;;;;;;36.63;20.60;;;;;;;5.68;100.00;101698.69;4986234;28;20207;-87
2021/11/08 08:26:46;;;;;;;41.42;19.52;;;;;;;5.72;100.00;101694.84;4969777;28;20034;-87
2021/11/08 08:29:12;;;;;;;45.75;20.33;;;;;;;5.75;100.00;101702.59;5004556;28;20067;-87
2021/11/08 08:31:43;;;;;;;40.97;19.17;;;;;;;5.80;100.00;101708.47;4991142;28;20088;-87
2021/11/08 08:34:11;;;;;;;41.38;20.38;;;;;;;5.85;100.00;101722.31;5004222;28;20046;-87
2021/11/08 08:36:38;;;;;;;38.08;19.17;;;;;;;5.90;100.00;101720.16;5003654;28;20044;-87
2021/11/08 08:39:06;;;;;;;44.20;20.08;;;;;;;5.92;100.00;101718.22;4975846;28;20137;-87
2021/11/08 08:41:33;;;;;;;40.45;18.40;;;;;;;5.96;100.00;101721.56;4986804;28;20064;-86
2021/11/08 08:44:00;;;;;;;42.00;18.77;;;;;;;6.01;100.00;101722.94;5002982;28;20046;-86
2021/11/08 08:46:25;;;;;;;39.40;17.95;;;;;;;6.02;100.00;101724.63;4986156;28;20072;-86
2021/11/08 08:48:53;;;;;;;38.15;18.23;;;;;;;6.07;100.00;101725.13;4983784;28;20053;-86
2021/11/08 08:51:18;;;;;;;33.17;17.15;;;;;;;6.10;100.00;101732.06;4999537;28;22103;-86
2021/11/08 08:53:44;;;;;;;32.83;15.57;;;;;;;6.13;100.00;101731.84;4979020;28;20038;-85
2021/11/08 08:56:09;;;;;;;32.45;15.52;;;;;;;6.18;100.00;101734.16;4983192;28;20053;-86
2021/11/08 08:58:37;;;;;;;39.55;16.38;;;;;;;6.21;100.00;101739.25;4995172;28;20037;-86
2021/11/08 09:01:02;;;;;;;33.45;15.50;;;;;;;6.23;100.00;101738.19;4988287;28;20490;-87
2021/11/08 09:03:28;;;;;;;35.47;16.17;;;;;;;6.25;100.00;101732.75;4983402;28;20066;-88
2021/11/08 09:05:53;;;;;;;35.65;14.57;;;;;;;6.29;100.00;101731.53;4984336;28;20482;-87
2021/11/08 09:08:19;;;;;;;35.30;16.05;;;;;;;6.35;100.00;101728.41;5002785;28;20042;-86
2021/11/08 09:10:45;;;;;;;37.17;15.45;;;;;;;6.38;100.00;101730.84;5000881;28;20034;-85
2021/11/08 09:13:11;;;;;;;35.00;15.80;;;;;;;6.44;100.00;101745.53;5003584;28;20537;-86
2021/11/08 09:15:38;;;;;;;31.23;15.38;;;;;;;6.51;100.00;101741.47;4986689;28;20042;-87
2021/11/08 09:18:05;;;;;;;36.35;14.55;;;;;;;6.54;100.00;101739.41;5007337;28;20129;-85
2021/11/08 09:20:33;;;;;;;31.38;13.55;;;;;;;6.59;100.00;101744.41;5006585;28;20041;-86
2021/11/08 09:22:59;;;;;;;35.63;15.02;;;;;;;6.66;100.00;101750.97;4995573;28;20085;-85
2021/11/08 09:25:26;;;;;;;30.58;11.98;;;;;;;6.72;100.00;101747.00;5001524;28;20034;-85
2021/11/08 09:27:55;;;;;;;26.48;11.52;;;;;;;6.77;100.00;101736.84;5006787;28;20086;-86
2021/11/08 09:30:23;;;;;;;30.38;12.75;;;;;;;6.88;100.00;101746.69;4989315;28;20041;-86
2021/11/08 09:32:49;;;;;;;29.10;10.75;;;;;;;6.90;100.00;101742.91;4989815;28;20034;-86
2021/11/08 09:35:15;;;;;;;31.50;12.35;;;;;;;6.97;100.00;101749.50;4988807;28;20646;-86
2021/11/08 09:37:44;;;;;;;27.42;10.85;;;;;;;6.99;100.00;101742.25;4979002;28;20053;-86
2021/11/08 09:40:12;;;;;;;31.13;11.27;;;;;;;7.06;100.00;101747.09;4998987;28;20034;-86
2021/11/08 09:42:39;;;;;;;26.73;11.27;;;;;;;7.09;100.00;101742.38;4973425;28;20506;-86
2021/11/08 09:45:06;;;;;;;25.98;10.32;;;;;;;7.13;100.00;101734.97;4990077;28;20046;-86
2021/11/08 09:47:38;;;;;;;29.45;10.68;;;;;;;7.20;100.00;101741.56;4976610;28;20037;-86
2021/11/08 09:50:07;;;;;;;23.95;9.77;;;;;;;7.24;100.00;101735.84;5006369;28;20057;-86
2021/11/08 09:52:37;;;;;;;22.50;9.68;;;;;;;7.33;100.00;101730.75;4995167;28;20479;-86
2021/11/08 09:55:06;;;;;;;25.73;9.82;;;;;;;7.39;100.00;101732.94;5002739;28;20133;-86
2021/11/08 09:57:32;;;;;;;23.45;10.30;;;;;;;7.50;100.00;101735.63;4989898;28;20049;-87
2021/11/08 09:59:57;;;;;;;24.55;9.93;;;;;;;7.59;100.00;101734.03;4992721;28;20046;-87
2021/11/08 10:02:22;;;;;;;24.80;9.43;;;;;;;7.64;100.00;101743.38;4979536;28;20038;-86
2021/11/08 10:04:48;;;;;;;20.92;9.13;;;;;;;7.71;100.00;101748.22;5007246;28;20634;-86
2021/11/08 10:07:15;;;;;;;19.88;8.68;;;;;;;7.76;100.00;101746.91;5006774;28;20033;-86
2021/11/08 10:09:42;;;;;;;26.98;10.05;;;;;;;7.82;100.00;101746.41;5005513;28;20045;-87
2021/11/08 10:12:11;;;;;;;25.20;9.18;;;;;;;7.86;100.00;101742.53;4988710;28;20061;-86
2021/11/08 10:14:38;;;;;;;17.80;8.50;;;;;;;7.93;100.00;101748.22;4986379;28;20034;-87
2021/11/08 10:17:04;;;;;;;20.63;8.57;;;;;;;8.01;100.00;101747.59;4980191;28;20053;-85
2021/11/08 10:19:34;;;;;;;23.55;8.30;;;;;;;8.08;100.00;101749.63;5002446;28;20154;-86
2021/11/08 10:22:00;;;;;;;29.77;9.27;;;;;;;8.14;100.00;101750.97;4989165;28;20034;-86
2021/11/08 10:24:32;;;;;;;21.60;8.88;;;;;;;8.19;100.00;101745.25;4954742;28;20042;-86
2021/11/08 10:27:00;;;;;;;23.63;8.38;;;;;;;8.26;100.00;101744.63;4987613;28;20045;-87
2021/11/08 10:29:27;;;;;;;16.58;6.50;;;;;;;8.29;100.00;101751.56;5004067;28;20442;-86
2021/11/08 10:31:58;;;;;;;22.48;7.65;;;;;;;8.34;100.00;101766.25;4989771;28;20483;-86
2021/11/08 10:34:27;;;;;;;18.80;7.13;;;;;;;8.39;100.00;101754.34;4967715;28;20046;-87
2021/11/08 10:37:01;;;;;;;22.48;7.70;;;;;;;8.44;100.00;101744.97;4967272;28;20131;-87
2021/11/08 10:39:29;;;;;;;21.05;6.85;;;;;;;8.46;100.00;101745.69;4944504;28;20080;-86
2021/11/08 10:41:56;;;;;;;20.85;7.28;;;;;;;8.51;100.00;101750.66;4982934;28;20050;-86
2021/11/08 10:44:23;;;;;;;23.85;7.43;;;;;;;8.56;100.00;101745.78;4989334;28;20038;-86
2021/11/08 10:47:03;;;;;;;18.17;7.80;;;;;;;8.62;100.00;101739.91;4988495;28;20062;-87
2021/11/08 10:49:33;;;;;;;20.20;7.22;;;;;;;8.73;100.00;101736.34;4989640;28;20066;-87
2021/11/08 10:52:00;;;;;;;20.67;7.43;;;;;;;8.82;100.00;101747.09;4971398;28;20060;-87
2021/11/08 10:54:27;;;;;;;18.83;7.70;;;;;;;8.88;100.00;101739.53;4970965;28;20092;-86
2021/11/08 10:57:16;;;;;;;14.75;6.93;;;;;;;8.94;100.00;101750.56;5006078;28;20054;-86
2021/11/08 10:59:48;;;;;;;18.08;7.22;;;;;;;9.00;100.00;101747.34;4983035;28;20309;-86
2021/11/08 11:02:23;;;;;;;18.95;6.97;;;;;;;9.10;100.00;101746.59;5005655;28;20046;-86
2021/11/08 11:04:58;;;;;;;17.15;7.13;;;;;;;9.15;100.00;101739.00;5004693;28;20398;-86
2021/11/08 11:07:36;;;;;;;19.15;7.00;;;;;;;9.20;100.00;101745.66;4986581;28;20913;-86
2021/11/08 11:10:11;;;;;;;26.15;7.57;;;;;;;9.31;100.00;101741.22;4984810;28;20034;-86
2021/11/08 11:12:41;;;;;;;24.80;7.80;;;;;;;9.37;100.00;101746.88;4982756;28;20506;-87
2021/11/08 11:15:11;;;;;;;16.45;5.32;;;;;;;9.43;100.00;101745.50;4952171;28;20390;-86
2021/11/08 11:17:42;;;;;;;19.10;5.97;;;;;;;9.44;99.78;101742.69;4938098;28;20507;-86
2021/11/08 11:20:14;;;;;;;17.08;6.50;;;;;;;9.48;100.00;101743.28;4984967;28;20121;-86
2021/11/08 11:22:45;;;;;;;24.92;6.10;;;;;;;9.51;99.32;101739.47;4984891;28;20038;-85
2021/11/08 11:25:14;;;;;;;19.65;5.78;;;;;;;9.62;99.92;101739.41;4968429;28;20136;-87
2021/11/08 11:27:49;;;;;;;20.35;6.15;;;;;;;9.75;99.13;101744.50;4967170;28;20499;-86
2021/11/08 11:30:24;;;;;;;24.25;6.35;;;;;;;9.82;99.48;101743.00;4968305;28;20041;-86
2021/11/08 11:33:20;;;;;;;15.38;5.18;;;;;;;9.96;97.82;101731.03;4950583;28;20416;-86
2021/11/08 11:35:50;;;;;;;17.40;5.90;;;;;;;9.95;97.32;101735.53;4950730;28;20368;-87
2021/11/08 11:38:23;;;;;;;13.48;5.25;;;;;;;10.05;97.47;101736.41;4985368;28;20038;-86
2021/11/08 11:41:18;;;;;;;22.73;5.65;;;;;;;10.14;95.75;101740.94;4967447;28;20046;-86
2021/11/08 11:43:48;;;;;;;18.63;5.65;;;;;;;10.22;97.22;101742.09;4973408;28;20049;-85
2021/11/08 11:46:22;;;;;;;15.30;5.50;;;;;;;10.31;95.27;101743.97;4967937;28;20042;-87
2021/11/08 11:48:48;;;;;;;15.55;5.60;;;;;;;10.36;94.51;101747.09;4992148;28;20046;-86
2021/11/08 11:51:18;;;;;;;16.52;5.88;;;;;;;10.41;94.92;101752.88;4978819;28;20116;-87
2021/11/08 11:53:46;;;;;;;15.10;5.22;;;;;;;10.38;92.84;101737.06;4991842;28;20426;-87
2021/11/08 11:56:33;;;;;;;17.98;4.80;;;;;;;10.39;93.51;101744.97;4973712;28;20510;-86
2021/11/08 11:58:59;;;;;;;15.10;4.47;;;;;;;10.44;92.33;101738.34;4974828;28;20084;-88
2021/11/08 12:01:27;;;;;;;13.27;4.05;;;;;;;10.45;91.99;101754.31;5007690;28;20192;-87
2021/11/08 12:03:52;;;;;;;14.15;5.05;;;;;;;10.55;93.26;101746.25;4971649;28;20066;-87
2021/11/08 12:06:25;;;;;;;9.43;3.83;;;;;;;10.60;92.75;101742.16;4982335;28;20116;-87
2021/11/08 12:08:56;;;;;;;14.77;4.13;;;;;;;10.65;92.21;101744.44;4983382;28;20092;-87
2021/11/08 12:11:31;;;;;;;21.85;4.85;;;;;;;10.65;89.99;101739.06;4955326;28;20043;-87
2021/11/08 12:14:05;;;;;;;16.30;4.22;;;;;;;10.65;91.21;101747.13;4938003;28;20042;-87
2021/11/08 12:16:33;;;;;;;14.43;3.83;;;;;;;10.54;89.03;101742.72;4956470;28;20042;-88
2021/11/08 12:19:00;;;;;;;14.50;3.57;;;;;;;10.64;90.76;101740.03;4972992;28;20517;-88
2021/11/08 12:21:32;;;;;;;12.70;3.42;;;;;;;10.68;89.11;101737.94;4957073;28;20035;-87
2021/11/08 12:24:01;;;;;;;12.40;3.63;;;;;;;10.77;91.72;101737.06;4967274;28;20053;-88
2021/11/08 12:26:31;;;;;;;14.18;3.90;;;;;;;10.97;91.25;101725.31;4985271;28;20042;-87
2021/11/08 12:29:09;;;;;;;15.85;3.72;;;;;;;10.89;89.59;101719.81;4955213;28;20141;-88
2021/11/08 12:31:37;;;;;;;12.45;3.75;;;;;;;10.90;93.56;101729.53;4965769;28;20039;-87
2021/11/08 12:34:14;;;;;;;17.83;4.38;;;;;;;10.87;91.53;101721.78;4986146;28;20518;-87
2021/11/08 12:36:41;;;;;;;13.70;3.47;;;;;;;10.94;90.38;101720.22;4983701;28;20050;-87
2021/11/08 12:39:11;;;;;;;16.75;3.72;;;;;;;11.02;91.70;101719.53;4975547;28;20043;-88
2021/11/08 12:41:48;;;;;;;14.35;4.60;;;;;;;11.00;89.90;101716.97;4957392;28;20031;-87
2021/11/08 12:44:22;;;;;;;15.60;3.55;;;;;;;10.88;89.42;101722.66;4966390;28;20046;-87
2021/11/08 12:46:56;;;;;;;13.63;3.63;;;;;;;10.88;89.96;101725.34;4966557;28;20054;-87
2021/11/08 12:49:27;;;;;;;14.27;3.70;;;;;;;10.98;91.37;101721.63;4983224;28;20517;-88
2021/11/08 12:52:06;;;;;;;16.70;4.22;;;;;;;10.97;90.50;101722.63;4969643;28;20043;-88
2021/11/08 12:54:55;;;;;;;17.45;4.22;;;;;;;10.85;92.38;101718.41;4969712;28;20066;-88
2021/11/08 12:57:23;;;;;;;13.70;4.30;;;;;;;10.80;92.71;101710.78;4987255;28;20543;-88
2021/11/08 12:59:57;;;;;;;16.83;5.10;;;;;;;10.76;92.94;101709.38;4955513;28;20085;-87